Time,TemperatureF,DewpointF,PressureIn,WindDirection,WindDirectionDegrees,WindSpeedMPH,WindSpeedGustMPH,Humidity,HourlyPrecipIn,Conditions,Clouds,dailyrainin,SoftwareType,DateUTC
2013-06-22 00:01:00,68.3,57.3,30.21,SSW,199,3.0,6.0,68,0.00,,---,0.00,VWS V14.01,2013-06-22 04:01:00,
2013-06-22 00:06:00,68.4,57.4,30.21,SSW,200,3.0,6.0,68,0.00,,---,0.00,VWS V14.01,2013-06-22 04:06:00,
2013-06-22 00:11:00,68.5,57.1,30.21,SW,231,3.0,6.0,67,0.00,,---,0.00,VWS V14.01,2013-06-22 04:11:00,
2013-06-22 00:16:00,68.5,57.5,30.21,South,187,0.0,6.0,68,0.00,,---,0.00,VWS V14.01,2013-06-22 04:16:00,
2013-06-22 00:21:00,68.5,58.3,30.21,South,184,0.0,6.0,70,0.00,,---,0.00,VWS V14.01,2013-06-22 04:21:00,
2013-06-22 00:26:00,68.3,57.3,30.21,SSW,199,2.0,6.0,68,0.00,,---,0.00,VWS V14.01,2013-06-22 04:26:00,
2013-06-22 00:31:00,68.3,57.3,30.21,SSE,162,0.0,3.0,68,0.00,,---,0.00,VWS V14.01,2013-06-22 04:31:00,
2013-06-22 00:36:00,68.3,57.3,30.21,South,190,2.0,3.0,68,0.00,,---,0.00,VWS V14.01,2013-06-22 04:36:00,
2013-06-22 00:41:00,68.3,56.9,30.21,South,186,3.0,6.0,67,0.00,,---,0.00,VWS V14.01,2013-06-22 04:41:00,
2013-06-22 00:46:00,68.3,57.3,30.21,SSE,159,2.0,6.0,68,0.00,,---,0.00,VWS V14.01,2013-06-22 04:46:00,
2013-06-22 00:51:00,68.2,57.2,30.21,SSW,210,2.0,6.0,68,0.00,,---,0.00,VWS V14.01,2013-06-22 04:51:00,
2013-06-22 00:56:00,68.1,57.2,30.21,SSW,210,3.0,6.0,68,0.00,,---,0.00,VWS V14.01,2013-06-22 04:56:00,
2013-06-22 01:01:00,68.1,57.6,30.21,SW,219,0.0,1.0,69,0.00,,---,0.00,VWS V14.01,2013-06-22 05:01:00,
2013-06-22 01:06:00,68.0,56.7,30.21,South,174,3.0,6.0,67,0.00,,---,0.00,VWS V14.01,2013-06-22 05:06:00,
2013-06-22 01:11:00,68.0,57.5,30.22,SSW,199,0.0,6.0,69,0.00,,---,0.00,VWS V14.01,2013-06-22 05:11:00,
2013-06-22 01:16:00,67.9,57.0,30.21,SW,227,1.0,6.0,68,0.00,,---,0.00,VWS V14.01,2013-06-22 05:16:00,
2013-06-22 01:21:00,67.7,56.4,30.21,South,177,0.0,7.0,67,0.00,,---,0.00,VWS V14.01,2013-06-22 05:21:00,
2013-06-22 01:26:00,67.8,57.3,30.21,SSW,198,1.0,7.0,69,0.00,,---,0.00,VWS V14.01,2013-06-22 05:26:00,
2013-06-22 01:31:00,67.7,56.8,30.21,SSW,204,0.0,0.0,68,0.00,,---,0.00,VWS V14.01,2013-06-22 05:31:00,
2013-06-22 01:36:00,67.6,56.7,30.22,SSW,193,2.0,3.0,68,0.00,,---,0.00,VWS V14.01,2013-06-22 05:36:00,
2013-06-22 01:41:00,67.6,57.5,30.21,SSE,162,2.0,5.0,70,0.00,,---,0.00,VWS V14.01,2013-06-22 05:41:00,
2013-06-22 01:46:00,67.5,56.2,30.21,South,176,1.0,6.0,67,0.00,,---,0.00,VWS V14.01,2013-06-22 05:46:00,
2013-06-22 01:51:00,67.5,56.6,30.21,SSE,166,0.0,6.0,68,0.00,,---,0.00,VWS V14.01,2013-06-22 05:51:00,
2013-06-22 01:56:00,67.5,57.8,30.21,South,175,0.0,6.0,71,0.00,,---,0.00,VWS V14.01,2013-06-22 05:56:00,
2013-06-22 02:01:00,67.4,56.5,30.22,WSW,248,3.0,3.0,68,0.00,,---,0.00,VWS V14.01,2013-06-22 06:01:00,
2013-06-22 02:06:00,67.3,56.4,30.21,South,186,0.0,3.0,68,0.00,,---,0.00,VWS V14.01,2013-06-22 06:06:00,
2013-06-22 02:11:00,67.3,56.8,30.22,SSW,212,0.0,5.0,69,0.00,,---,0.00,VWS V14.01,2013-06-22 06:11:00,
2013-06-22 02:16:00,67.2,57.1,30.22,SSE,167,1.0,5.0,70,0.00,,---,0.00,VWS V14.01,2013-06-22 06:16:00,
2013-06-22 02:21:00,67.2,56.3,30.22,SSW,207,1.0,5.0,68,0.00,,---,0.00,VWS V14.01,2013-06-22 06:21:00,
2013-06-22 02:26:00,67.1,56.6,30.21,SSW,209,0.0,5.0,69,0.00,,---,0.00,VWS V14.01,2013-06-22 06:26:00,
2013-06-22 02:31:00,67.0,56.1,30.21,SSW,203,1.0,2.0,68,0.00,,---,0.00,VWS V14.01,2013-06-22 06:31:00,
2013-06-22 02:36:00,66.9,56.0,30.21,SW,233,0.0,2.0,68,0.00,,---,0.00,VWS V14.01,2013-06-22 06:36:00,
2013-06-22 02:41:00,66.8,56.3,30.22,SW,233,1.0,2.0,69,0.00,,---,0.00,VWS V14.01,2013-06-22 06:41:00,
2013-06-22 02:46:00,66.7,56.2,30.22,South,173,1.0,5.0,69,0.00,,---,0.00,VWS V14.01,2013-06-22 06:46:00,
2013-06-22 02:51:00,66.5,56.4,30.21,SSE,164,0.0,5.0,70,0.00,,---,0.00,VWS V14.01,2013-06-22 06:51:00,
2013-06-22 02:56:00,66.3,55.8,30.21,SSE,164,1.0,5.0,69,0.00,,---,0.00,VWS V14.01,2013-06-22 06:56:00,
2013-06-22 03:01:00,66.1,56.0,30.21,SSE,164,0.0,0.0,70,0.00,,---,0.00,VWS V14.01,2013-06-22 07:01:00,
2013-06-22 03:06:00,65.9,55.5,30.21,SSE,164,0.0,1.0,69,0.00,,---,0.00,VWS V14.01,2013-06-22 07:06:00,
2013-06-22 03:11:00,65.6,55.6,30.21,SSE,164,0.0,1.0,70,0.00,,---,0.00,VWS V14.01,2013-06-22 07:11:00,
2013-06-22 03:16:00,65.4,55.4,30.21,SSE,164,0.0,1.0,70,0.00,,---,0.00,VWS V14.01,2013-06-22 07:16:00,
2013-06-22 03:21:00,65.1,56.2,30.21,SSE,164,0.0,1.0,73,0.00,,---,0.00,VWS V14.01,2013-06-22 07:21:00,
2013-06-22 03:26:00,64.8,56.0,30.20,SSE,164,0.0,1.0,73,0.00,,---,0.00,VWS V14.01,2013-06-22 07:26:00,
2013-06-22 03:31:00,64.6,55.8,30.20,SSW,192,2.0,3.0,73,0.00,,---,0.00,VWS V14.01,2013-06-22 07:31:00,
2013-06-22 03:36:00,64.5,55.3,30.20,South,183,0.0,3.0,72,0.00,,---,0.00,VWS V14.01,2013-06-22 07:36:00,
2013-06-22 03:41:00,64.4,55.6,30.21,South,189,1.0,3.0,73,0.00,,---,0.00,VWS V14.01,2013-06-22 07:41:00,
2013-06-22 03:46:00,64.3,55.8,30.21,South,189,0.0,3.0,74,0.00,,---,0.00,VWS V14.01,2013-06-22 07:46:00,
2013-06-22 03:51:00,64.1,56.0,30.20,South,189,0.0,3.0,75,0.00,,---,0.00,VWS V14.01,2013-06-22 07:51:00,
2013-06-22 03:56:00,63.9,55.8,30.20,South,189,0.0,3.0,75,0.00,,---,0.00,VWS V14.01,2013-06-22 07:56:00,
2013-06-22 04:01:00,63.7,56.0,30.21,South,190,0.0,1.0,76,0.00,,---,0.00,VWS V14.01,2013-06-22 08:01:00,
2013-06-22 04:06:00,63.6,55.5,30.20,SSW,204,1.0,4.0,75,0.00,,---,0.00,VWS V14.01,2013-06-22 08:06:00,
2013-06-22 04:11:00,63.9,55.5,30.20,South,178,2.0,5.0,74,0.00,,---,0.00,VWS V14.01,2013-06-22 08:11:00,
2013-06-22 04:16:00,64.0,55.6,30.20,South,178,0.0,5.0,74,0.00,,---,0.00,VWS V14.01,2013-06-22 08:16:00,
2013-06-22 04:21:00,64.0,55.6,30.20,SSE,156,0.0,5.0,74,0.00,,---,0.00,VWS V14.01,2013-06-22 08:21:00,
2013-06-22 04:26:00,64.0,55.2,30.20,South,179,1.0,5.0,73,0.00,,---,0.00,VWS V14.01,2013-06-22 08:26:00,
2013-06-22 04:31:00,64.0,55.6,30.20,South,179,2.0,2.0,74,0.00,,---,0.00,VWS V14.01,2013-06-22 08:31:00,
2013-06-22 04:36:00,64.0,56.3,30.21,SSE,168,0.0,3.0,76,0.00,,---,0.00,VWS V14.01,2013-06-22 08:36:00,
2013-06-22 04:41:00,63.8,55.7,30.21,WSW,243,0.0,3.0,75,0.00,,---,0.00,VWS V14.01,2013-06-22 08:41:00,
2013-06-22 04:46:00,63.7,56.0,30.20,SSE,148,0.0,4.0,76,0.00,,---,0.00,VWS V14.01,2013-06-22 08:46:00,
2013-06-22 04:51:00,63.5,55.4,30.20,SSW,199,3.0,4.0,75,0.00,,---,0.00,VWS V14.01,2013-06-22 08:51:00,
2013-06-22 04:56:00,63.5,55.4,30.21,South,191,1.0,4.0,75,0.00,,---,0.00,VWS V14.01,2013-06-22 08:56:00,
2013-06-22 05:01:00,63.5,55.8,30.20,South,191,0.0,1.0,76,0.00,,---,0.00,VWS V14.01,2013-06-22 09:01:00,
2013-06-22 05:06:00,63.4,55.3,30.21,South,180,0.0,2.0,75,0.00,,---,0.00,VWS V14.01,2013-06-22 09:06:00,
2013-06-22 05:11:00,63.4,55.3,30.21,SSW,197,0.0,4.0,75,0.00,,---,0.00,VWS V14.01,2013-06-22 09:11:00,
2013-06-22 05:16:00,63.4,55.3,30.21,SSW,197,0.0,4.0,75,0.00,,---,0.00,VWS V14.01,2013-06-22 09:16:00,
2013-06-22 05:21:00,63.4,55.0,30.21,SSW,197,0.0,4.0,74,0.00,,---,0.00,VWS V14.01,2013-06-22 09:21:00,
2013-06-22 05:26:00,63.4,55.0,30.21,South,179,1.0,4.0,74,0.00,,---,0.00,VWS V14.01,2013-06-22 09:26:00,
2013-06-22 05:31:00,63.5,55.4,30.21,South,178,1.0,1.0,75,0.00,,---,0.00,VWS V14.01,2013-06-22 09:31:00,
2013-06-22 05:36:00,63.5,55.1,30.21,SSW,198,2.0,3.0,74,0.00,,---,0.00,VWS V14.01,2013-06-22 09:36:00,
2013-06-22 05:41:00,63.6,55.2,30.21,SSW,193,0.0,3.0,74,0.00,,---,0.00,VWS V14.01,2013-06-22 09:41:00,
2013-06-22 05:46:00,63.6,55.5,30.21,South,190,2.0,3.0,75,0.00,,---,0.00,VWS V14.01,2013-06-22 09:46:00,
2013-06-22 05:51:00,63.6,55.5,30.20,South,185,0.0,3.0,75,0.00,,---,0.00,VWS V14.01,2013-06-22 09:51:00,
2013-06-22 05:56:00,63.6,55.5,30.20,SSW,200,1.0,5.0,75,0.00,,---,0.00,VWS V14.01,2013-06-22 09:56:00,
2013-06-22 06:01:00,63.8,55.4,30.20,SSW,212,3.0,3.0,74,0.00,,---,0.00,VWS V14.01,2013-06-22 10:01:00,
2013-06-22 06:06:00,63.9,55.5,30.20,South,191,0.0,5.0,74,0.00,,---,0.00,VWS V14.01,2013-06-22 10:06:00,
2013-06-22 06:11:00,64.0,55.6,30.20,South,172,2.0,5.0,74,0.00,,---,0.00,VWS V14.01,2013-06-22 10:11:00,
2013-06-22 06:16:00,64.0,55.6,30.20,South,186,0.0,5.0,74,0.00,,---,0.00,VWS V14.01,2013-06-22 10:16:00,
2013-06-22 06:21:00,64.1,55.7,30.20,SW,234,0.0,5.0,74,0.00,,---,0.00,VWS V14.01,2013-06-22 10:21:00,
2013-06-22 06:26:00,64.3,55.8,30.20,SSW,193,2.0,5.0,74,0.00,,---,0.00,VWS V14.01,2013-06-22 10:26:00,
2013-06-22 06:31:00,64.4,55.9,30.20,WSW,251,2.0,3.0,74,0.00,,---,0.00,VWS V14.01,2013-06-22 10:31:00,
2013-06-22 06:36:00,64.5,56.4,30.20,SW,216,1.0,3.0,75,0.00,,---,0.00,VWS V14.01,2013-06-22 10:36:00,
2013-06-22 06:41:00,64.5,56.4,30.20,South,177,0.0,4.0,75,0.00,,---,0.00,VWS V14.01,2013-06-22 10:41:00,
2013-06-22 06:46:00,64.6,56.5,30.20,SE,143,2.0,5.0,75,0.00,,---,0.00,VWS V14.01,2013-06-22 10:46:00,
2013-06-22 06:51:00,64.7,56.6,30.21,South,185,0.0,5.0,75,0.00,,---,0.00,VWS V14.01,2013-06-22 10:51:00,
2013-06-22 06:56:00,64.8,56.3,30.21,South,173,0.0,5.0,74,0.00,,---,0.00,VWS V14.01,2013-06-22 10:56:00,
2013-06-22 07:01:00,64.9,56.4,30.20,South,190,0.0,0.0,74,0.00,,---,0.00,VWS V14.01,2013-06-22 11:01:00,
2013-06-22 07:06:00,65.0,56.9,30.20,South,190,1.0,1.0,75,0.00,,---,0.00,VWS V14.01,2013-06-22 11:06:00,
2013-06-22 07:11:00,65.1,57.0,30.20,South,190,0.0,2.0,75,0.00,,---,0.00,VWS V14.01,2013-06-22 11:11:00,
2013-06-22 07:16:00,65.1,56.6,30.20,South,178,2.0,6.0,74,0.00,,---,0.00,VWS V14.01,2013-06-22 11:16:00,
2013-06-22 07:21:00,65.2,57.1,30.20,SSW,198,0.0,6.0,75,0.00,,---,0.00,VWS V14.01,2013-06-22 11:21:00,
2013-06-22 07:26:00,65.3,56.8,30.20,SSE,167,2.0,6.0,74,0.00,,---,0.00,VWS V14.01,2013-06-22 11:26:00,
2013-06-22 07:31:00,65.5,57.0,30.20,SW,216,3.0,3.0,74,0.00,,---,0.00,VWS V14.01,2013-06-22 11:31:00,
2013-06-22 07:36:00,65.6,57.1,30.20,South,191,4.0,4.0,74,0.00,,---,0.00,VWS V14.01,2013-06-22 11:36:00,
2013-06-22 07:41:00,65.7,56.8,30.20,South,178,0.0,4.0,73,0.00,,---,0.00,VWS V14.01,2013-06-22 11:41:00,
2013-06-22 07:46:00,65.9,57.4,30.20,WSW,237,1.0,4.0,74,0.00,,---,0.00,VWS V14.01,2013-06-22 11:46:00,
2013-06-22 07:51:00,66.0,57.1,30.20,SSE,147,3.0,5.0,73,0.00,,---,0.00,VWS V14.01,2013-06-22 11:51:00,
2013-06-22 07:56:00,66.1,57.2,30.20,SE,137,4.0,5.0,73,0.00,,---,0.00,VWS V14.01,2013-06-22 11:56:00,
2013-06-22 08:01:00,66.3,57.8,30.19,SW,235,1.0,4.0,74,0.00,,---,0.00,VWS V14.01,2013-06-22 12:01:00,
2013-06-22 08:06:00,66.6,57.7,30.19,SSW,197,2.0,5.0,73,0.00,,---,0.00,VWS V14.01,2013-06-22 12:06:00,
2013-06-22 08:11:00,66.9,58.0,30.19,WSW,242,3.0,7.0,73,0.00,,---,0.00,VWS V14.01,2013-06-22 12:11:00,
2013-06-22 08:16:00,67.1,57.8,30.19,South,171,3.0,7.0,72,0.00,,---,0.00,VWS V14.01,2013-06-22 12:16:00,
2013-06-22 08:21:00,67.4,58.5,30.19,SSW,202,3.0,7.0,73,0.00,,---,0.00,VWS V14.01,2013-06-22 12:21:00,
2013-06-22 08:26:00,67.5,58.2,30.19,South,182,2.0,7.0,72,0.00,,---,0.00,VWS V14.01,2013-06-22 12:26:00,
2013-06-22 08:31:00,67.7,58.7,30.19,SW,216,0.0,0.0,73,0.00,,---,0.00,VWS V14.01,2013-06-22 12:31:00,
2013-06-22 08:36:00,67.9,58.9,30.19,SSE,157,2.0,4.0,73,0.00,,---,0.00,VWS V14.01,2013-06-22 12:36:00,
2013-06-22 08:41:00,68.1,58.7,30.20,ESE,122,2.0,4.0,72,0.00,,---,0.00,VWS V14.01,2013-06-22 12:41:00,
2013-06-22 08:46:00,68.3,58.5,30.20,SSE,147,5.0,7.0,71,0.00,,---,0.00,VWS V14.01,2013-06-22 12:46:00,
2013-06-22 08:51:00,68.4,58.6,30.20,South,170,2.0,7.0,71,0.00,,---,0.00,VWS V14.01,2013-06-22 12:51:00,
2013-06-22 08:56:00,68.7,58.9,30.21,SSE,162,0.0,7.0,71,0.00,,---,0.00,VWS V14.01,2013-06-22 12:56:00,
2013-06-22 09:01:00,68.9,59.5,30.20,SSW,193,1.0,2.0,72,0.00,,---,0.00,VWS V14.01,2013-06-22 13:01:00,
2013-06-22 09:06:00,69.5,58.9,30.21,SSE,167,2.0,7.0,69,0.00,,---,0.00,VWS V14.01,2013-06-22 13:06:00,
2013-06-22 09:11:00,69.8,59.2,30.20,South,188,2.0,7.0,69,0.00,,---,0.00,VWS V14.01,2013-06-22 13:11:00,
2013-06-22 09:16:00,70.4,59.8,30.20,SSW,199,2.0,7.0,69,0.00,,---,0.00,VWS V14.01,2013-06-22 13:16:00,
2013-06-22 09:21:00,70.9,59.8,30.20,SE,144,2.0,7.0,68,0.00,,---,0.00,VWS V14.01,2013-06-22 13:21:00,
2013-06-22 09:26:00,71.0,59.1,30.19,SSW,195,3.0,7.0,66,0.00,,---,0.00,VWS V14.01,2013-06-22 13:26:00,
2013-06-22 09:31:00,71.2,59.7,30.20,SSE,147,4.0,4.0,67,0.00,,---,0.00,VWS V14.01,2013-06-22 13:31:00,
2013-06-22 09:36:00,71.5,60.8,30.19,SW,223,2.0,8.0,69,0.00,,---,0.00,VWS V14.01,2013-06-22 13:36:00,
2013-06-22 09:41:00,71.9,60.8,30.20,South,175,7.0,9.0,68,0.00,,---,0.00,VWS V14.01,2013-06-22 13:41:00,
2013-06-22 09:46:00,72.1,60.5,30.20,SSW,203,1.0,9.0,67,0.00,,---,0.00,VWS V14.01,2013-06-22 13:46:00,
2013-06-22 09:51:00,72.4,60.4,30.21,South,173,3.0,9.0,66,0.00,,---,0.00,VWS V14.01,2013-06-22 13:51:00,
2013-06-22 09:56:00,72.4,60.0,30.21,WSW,254,8.0,10.0,65,0.00,,---,0.00,VWS V14.01,2013-06-22 13:56:00,
2013-06-22 10:01:00,72.5,60.5,30.21,SW,214,8.0,9.0,66,0.00,,---,0.00,VWS V14.01,2013-06-22 14:01:00,
2013-06-22 10:06:00,72.6,60.2,30.21,SSE,161,4.0,9.0,65,0.00,,---,0.00,VWS V14.01,2013-06-22 14:06:00,
2013-06-22 10:11:00,72.8,60.8,30.21,WSW,243,5.0,9.0,66,0.00,,---,0.00,VWS V14.01,2013-06-22 14:11:00,
2013-06-22 10:16:00,73.3,60.8,30.20,SSE,151,3.0,9.0,65,0.00,,---,0.00,VWS V14.01,2013-06-22 14:16:00,
2013-06-22 10:21:00,73.6,61.1,30.21,SSW,212,3.0,10.0,65,0.00,,---,0.00,VWS V14.01,2013-06-22 14:21:00,
2013-06-22 10:26:00,73.8,61.3,30.21,SSE,166,2.0,10.0,65,0.00,,---,0.00,VWS V14.01,2013-06-22 14:26:00,
2013-06-22 10:31:00,74.1,61.6,30.20,South,175,4.0,4.0,65,0.00,,---,0.00,VWS V14.01,2013-06-22 14:31:00,
2013-06-22 10:36:00,74.4,61.4,30.21,SW,218,3.0,8.0,64,0.00,,---,0.00,VWS V14.01,2013-06-22 14:36:00,
2013-06-22 10:41:00,74.8,61.8,30.21,WSW,255,4.0,8.0,64,0.00,,---,0.00,VWS V14.01,2013-06-22 14:41:00,
2013-06-22 10:46:00,75.2,61.8,30.21,South,191,4.0,8.0,63,0.00,,---,0.00,VWS V14.01,2013-06-22 14:46:00,
2013-06-22 10:51:00,75.3,61.8,30.21,SSW,195,4.0,8.0,63,0.00,,---,0.00,VWS V14.01,2013-06-22 14:51:00,
2013-06-22 10:55:00,75.5,61.1,30.21,South,191,2.0,8.0,61,0.00,,---,0.00,VWS V14.01,2013-06-22 14:55:00,
2013-06-22 11:00:00,75.7,63.5,30.21,SSW,197,5.0,8.0,66,0.00,,---,0.00,VWS V14.01,2013-06-22 15:00:00,
2013-06-22 11:05:00,75.9,62.0,30.21,South,170,7.0,8.0,62,0.00,,---,0.00,VWS V14.01,2013-06-22 15:05:00,
2013-06-22 11:10:00,76.3,61.9,30.21,SSE,166,2.0,8.0,61,0.00,,---,0.00,VWS V14.01,2013-06-22 15:10:00,
2013-06-22 11:15:00,76.6,61.7,30.21,SE,146,6.0,9.0,60,0.00,,---,0.00,VWS V14.01,2013-06-22 15:15:00,
2013-06-22 11:20:00,76.7,61.3,30.21,South,179,4.0,9.0,59,0.00,,---,0.00,VWS V14.01,2013-06-22 15:20:00,
2013-06-22 11:25:00,76.6,61.2,30.20,WSW,249,4.0,9.0,59,0.00,,---,0.00,VWS V14.01,2013-06-22 15:25:00,
2013-06-22 11:30:00,76.9,62.4,30.20,SSE,162,6.0,6.0,61,0.00,,---,0.00,VWS V14.01,2013-06-22 15:30:00,
2013-06-22 11:35:00,76.9,62.9,30.20,WSW,254,5.0,7.0,62,0.00,,---,0.00,VWS V14.01,2013-06-22 15:35:00,
2013-06-22 11:40:00,77.0,63.5,30.20,South,178,4.0,7.0,63,0.00,,---,0.00,VWS V14.01,2013-06-22 15:40:00,
2013-06-22 11:45:00,77.3,63.3,30.20,SE,146,3.0,10.0,62,0.00,,---,0.00,VWS V14.01,2013-06-22 15:45:00,
2013-06-22 11:50:00,77.3,63.3,30.20,SSW,201,5.0,10.0,62,0.00,,---,0.00,VWS V14.01,2013-06-22 15:50:00,
2013-06-22 11:55:00,77.6,61.7,30.19,South,186,4.0,10.0,58,0.00,,---,0.00,VWS V14.01,2013-06-22 15:55:00,
2013-06-22 12:00:00,77.8,61.4,30.19,SW,219,5.0,10.0,57,0.00,,---,0.00,VWS V14.01,2013-06-22 16:00:00,
2013-06-22 12:05:00,78.2,62.7,30.19,SSW,201,5.0,9.0,59,0.00,,---,0.00,VWS V14.01,2013-06-22 16:05:00,
2013-06-22 12:10:00,78.5,62.0,30.19,SE,145,2.0,9.0,57,0.00,,---,0.00,VWS V14.01,2013-06-22 16:10:00,
2013-06-22 12:15:00,79.0,63.5,30.19,SE,136,6.0,9.0,59,0.00,,---,0.00,VWS V14.01,2013-06-22 16:15:00,
2013-06-22 12:20:00,79.3,61.8,30.19,South,174,6.0,12.0,55,0.00,,---,0.00,VWS V14.01,2013-06-22 16:20:00,
2013-06-22 12:25:00,79.4,61.8,30.19,South,187,5.0,12.0,55,0.00,,---,0.00,VWS V14.01,2013-06-22 16:25:00,
2013-06-22 12:30:00,79.8,61.2,30.19,South,182,4.0,12.0,53,0.00,,---,0.00,VWS V14.01,2013-06-22 16:30:00,
2013-06-22 12:35:00,80.1,62.5,30.18,SW,232,5.0,11.0,55,0.00,,---,0.00,VWS V14.01,2013-06-22 16:35:00,
2013-06-22 12:40:00,80.4,61.2,30.19,SSE,147,6.0,13.0,52,0.00,,---,0.00,VWS V14.01,2013-06-22 16:40:00,
2013-06-22 12:45:00,80.4,59.5,30.18,SSW,199,8.0,13.0,49,0.00,,---,0.00,VWS V14.01,2013-06-22 16:45:00,
2013-06-22 12:50:00,80.7,60.3,30.18,SSE,149,5.0,13.0,50,0.00,,---,0.00,VWS V14.01,2013-06-22 16:50:00,
2013-06-22 12:55:00,80.7,59.8,30.18,SSE,166,7.0,13.0,49,0.00,,---,0.00,VWS V14.01,2013-06-22 16:55:00,
2013-06-22 13:00:00,80.7,60.9,30.18,SSW,201,6.0,13.0,51,0.00,,---,0.00,VWS V14.01,2013-06-22 17:00:00,
2013-06-22 13:05:00,80.9,61.6,30.18,SSW,212,9.0,11.0,52,0.00,,---,0.00,VWS V14.01,2013-06-22 17:05:00,
2013-06-22 13:10:00,81.0,61.2,30.17,SSW,212,4.0,12.0,51,0.00,,---,0.00,VWS V14.01,2013-06-22 17:10:00,
2013-06-22 13:15:00,81.2,60.8,30.17,SW,222,5.0,12.0,50,0.00,,---,0.00,VWS V14.01,2013-06-22 17:15:00,
2013-06-22 13:20:00,81.6,61.2,30.17,SW,214,8.0,12.0,50,0.00,,---,0.00,VWS V14.01,2013-06-22 17:20:00,
2013-06-22 13:25:00,81.8,59.0,30.17,SW,231,3.0,12.0,46,0.00,,---,0.00,VWS V14.01,2013-06-22 17:25:00,
2013-06-22 13:30:00,81.7,58.3,30.17,WSW,255,5.0,12.0,45,0.00,,---,0.00,VWS V14.01,2013-06-22 17:30:00,
2013-06-22 13:35:00,81.9,58.5,30.17,West,277,6.0,9.0,45,0.00,,---,0.00,VWS V14.01,2013-06-22 17:35:00,
2013-06-22 13:40:00,82.0,58.6,30.17,South,171,5.0,12.0,45,0.00,,---,0.00,VWS V14.01,2013-06-22 17:40:00,
2013-06-22 13:45:00,82.0,57.3,30.17,SSW,195,5.0,12.0,43,0.00,,---,0.00,VWS V14.01,2013-06-22 17:45:00,
2013-06-22 13:50:00,82.0,58.6,30.17,South,174,3.0,12.0,45,0.00,,---,0.00,VWS V14.01,2013-06-22 17:50:00,
2013-06-22 13:55:00,82.2,59.4,30.16,SW,214,4.0,12.0,46,0.00,,---,0.00,VWS V14.01,2013-06-22 17:55:00,
2013-06-22 14:00:00,82.2,58.1,30.16,SSW,194,6.0,13.0,44,0.00,,---,0.00,VWS V14.01,2013-06-22 18:00:00,
2013-06-22 14:05:00,82.4,57.7,30.16,South,187,5.0,10.0,43,0.00,,---,0.00,VWS V14.01,2013-06-22 18:05:00,
2013-06-22 14:10:00,82.4,57.0,30.16,SSW,193,4.0,13.0,42,0.00,,---,0.00,VWS V14.01,2013-06-22 18:10:00,
2013-06-22 14:15:00,82.5,57.1,30.16,SSW,201,4.0,13.0,42,0.00,,---,0.00,VWS V14.01,2013-06-22 18:15:00,
2013-06-22 14:20:00,82.4,56.4,30.16,South,184,5.0,13.0,41,0.00,,---,0.00,VWS V14.01,2013-06-22 18:20:00,
2013-06-22 14:25:00,82.4,56.4,30.15,South,177,2.0,14.0,41,0.00,,---,0.00,VWS V14.01,2013-06-22 18:25:00,
2013-06-22 14:30:00,82.7,57.3,30.15,SSW,212,6.0,14.0,42,0.00,,---,0.00,VWS V14.01,2013-06-22 18:30:00,
2013-06-22 14:35:00,82.9,59.4,30.15,SW,214,5.0,9.0,45,0.00,,---,0.00,VWS V14.01,2013-06-22 18:35:00,
2013-06-22 14:40:00,83.0,56.9,30.15,SE,132,4.0,9.0,41,0.00,,---,0.00,VWS V14.01,2013-06-22 18:40:00,
2013-06-22 14:45:00,83.1,57.0,30.15,SE,142,3.0,12.0,41,0.00,,---,0.00,VWS V14.01,2013-06-22 18:45:00,
2013-06-22 14:50:00,83.0,57.6,30.15,WSW,243,3.0,12.0,42,0.00,,---,0.00,VWS V14.01,2013-06-22 18:50:00,
2013-06-22 14:55:00,83.4,57.3,30.15,WSW,237,2.0,12.0,41,0.00,,---,0.00,VWS V14.01,2013-06-22 18:55:00,
2013-06-22 15:00:00,83.5,58.7,30.15,South,176,3.0,12.0,43,0.00,,---,0.00,VWS V14.01,2013-06-22 19:00:00,
2013-06-22 15:05:00,83.4,57.3,30.14,SSW,199,4.0,9.0,41,0.00,,---,0.00,VWS V14.01,2013-06-22 19:05:00,
2013-06-22 15:10:00,83.4,59.8,30.14,SSE,168,2.0,9.0,45,0.00,,---,0.00,VWS V14.01,2013-06-22 19:10:00,
2013-06-22 15:15:00,83.6,58.1,30.14,SSW,207,7.0,11.0,42,0.00,,---,0.00,VWS V14.01,2013-06-22 19:15:00,
2013-06-22 15:20:00,83.4,57.9,30.13,SSW,193,2.0,11.0,42,0.00,,---,0.00,VWS V14.01,2013-06-22 19:20:00,
2013-06-22 15:25:00,83.4,59.2,30.13,SSE,147,3.0,11.0,44,0.00,,---,0.00,VWS V14.01,2013-06-22 19:25:00,
2013-06-22 15:30:00,83.2,57.8,30.13,SW,226,3.0,11.0,42,0.00,,---,0.00,VWS V14.01,2013-06-22 19:30:00,
2013-06-22 15:35:00,83.4,59.8,30.13,South,181,6.0,7.0,45,0.00,,---,0.00,VWS V14.01,2013-06-22 19:35:00,
2013-06-22 15:40:00,83.4,57.9,30.12,SSE,160,3.0,8.0,42,0.00,,---,0.00,VWS V14.01,2013-06-22 19:40:00,
2013-06-22 15:45:00,83.3,59.1,30.12,South,188,3.0,8.0,44,0.00,,---,0.00,VWS V14.01,2013-06-22 19:45:00,
2013-06-22 15:50:00,83.6,60.7,30.12,SSW,211,6.0,11.0,46,0.00,,---,0.00,VWS V14.01,2013-06-22 19:50:00,
2013-06-22 15:55:00,83.6,60.0,30.12,SW,222,3.0,11.0,45,0.00,,---,0.00,VWS V14.01,2013-06-22 19:55:00,
2013-06-22 16:00:00,83.6,59.4,30.12,SSE,165,4.0,11.0,44,0.00,,---,0.00,VWS V14.01,2013-06-22 20:00:00,
2013-06-22 16:05:00,83.6,58.8,30.11,SW,226,7.0,9.0,43,0.00,,---,0.00,VWS V14.01,2013-06-22 20:05:00,
2013-06-22 16:10:00,83.5,58.7,30.11,SW,233,5.0,9.0,43,0.00,,---,0.00,VWS V14.01,2013-06-22 20:10:00,
2013-06-22 16:15:00,83.5,59.9,30.11,SSW,197,4.0,9.0,45,0.00,,---,0.00,VWS V14.01,2013-06-22 20:15:00,
2013-06-22 16:20:00,83.5,59.9,30.11,SW,236,5.0,9.0,45,0.00,,---,0.00,VWS V14.01,2013-06-22 20:20:00,
2013-06-22 16:25:00,83.6,60.0,30.11,SSE,168,6.0,9.0,45,0.00,,---,0.00,VWS V14.01,2013-06-22 20:25:00,
2013-06-22 16:30:00,83.6,60.7,30.11,South,169,1.0,9.0,46,0.00,,---,0.00,VWS V14.01,2013-06-22 20:30:00,
2013-06-22 16:35:00,84.0,62.2,30.11,South,174,2.0,4.0,48,0.00,,---,0.00,VWS V14.01,2013-06-22 20:35:00,
2013-06-22 16:40:00,84.0,62.2,30.11,SSW,192,2.0,10.0,48,0.00,,---,0.00,VWS V14.01,2013-06-22 20:40:00,
2013-06-22 16:45:00,83.7,62.0,30.11,SSW,206,6.0,10.0,48,0.00,,---,0.00,VWS V14.01,2013-06-22 20:45:00,
2013-06-22 16:50:00,83.3,62.7,30.11,WSW,243,3.0,10.0,50,0.00,,---,0.00,VWS V14.01,2013-06-22 20:50:00,
2013-06-22 16:55:00,83.1,62.0,30.11,SSW,199,5.0,10.0,49,0.00,,---,0.00,VWS V14.01,2013-06-22 20:55:00,
2013-06-22 17:00:00,82.7,62.2,30.11,South,182,5.0,10.0,50,0.00,,---,0.00,VWS V14.01,2013-06-22 21:00:00,
2013-06-22 17:05:00,82.3,62.4,30.11,SSW,192,3.0,9.0,51,0.00,,---,0.00,VWS V14.01,2013-06-22 21:05:00,
2013-06-22 17:10:00,81.8,61.9,30.11,SW,220,6.0,12.0,51,0.00,,---,0.00,VWS V14.01,2013-06-22 21:10:00,
2013-06-22 17:15:00,81.5,61.7,30.11,WSW,237,3.0,12.0,51,0.00,,---,0.00,VWS V14.01,2013-06-22 21:15:00,
2013-06-22 17:20:00,81.4,62.1,30.11,SE,145,5.0,12.0,52,0.00,,---,0.00,VWS V14.01,2013-06-22 21:20:00,
2013-06-22 17:25:00,81.4,62.6,30.11,SSW,210,5.0,12.0,53,0.00,,---,0.00,VWS V14.01,2013-06-22 21:25:00,
2013-06-22 17:30:00,81.2,61.4,30.11,SSW,208,7.0,12.0,51,0.00,,---,0.00,VWS V14.01,2013-06-22 21:30:00,
2013-06-22 17:35:00,81.0,62.3,30.11,South,190,3.0,7.0,53,0.00,,---,0.00,VWS V14.01,2013-06-22 21:35:00,
2013-06-22 17:40:00,80.9,62.7,30.11,South,171,2.0,7.0,54,0.00,,---,0.00,VWS V14.01,2013-06-22 21:40:00,
2013-06-22 17:45:00,80.6,60.8,30.11,South,187,3.0,12.0,51,0.00,,---,0.00,VWS V14.01,2013-06-22 21:45:00,
2013-06-22 17:50:00,80.3,62.2,30.11,SSW,209,4.0,12.0,54,0.00,,---,0.00,VWS V14.01,2013-06-22 21:50:00,
2013-06-22 17:55:00,80.2,61.0,30.11,WSW,237,5.0,12.0,52,0.00,,---,0.00,VWS V14.01,2013-06-22 21:55:00,
2013-06-22 18:00:00,80.2,62.1,30.11,SSE,164,3.0,12.0,54,0.00,,---,0.00,VWS V14.01,2013-06-22 22:00:00,
2013-06-22 18:05:00,80.0,61.3,30.11,SSW,209,4.0,7.0,53,0.00,,---,0.00,VWS V14.01,2013-06-22 22:05:00,
2013-06-22 18:10:00,79.7,60.5,30.10,SW,232,7.0,10.0,52,0.00,,---,0.00,VWS V14.01,2013-06-22 22:10:00,
2013-06-22 18:15:00,79.5,60.3,30.10,SW,221,7.0,10.0,52,0.00,,---,0.00,VWS V14.01,2013-06-22 22:15:00,
2013-06-22 18:20:00,79.3,61.8,30.10,SSW,206,1.0,10.0,55,0.00,,---,0.00,VWS V14.01,2013-06-22 22:20:00,
2013-06-22 18:25:00,79.1,60.0,30.10,SSW,192,2.0,10.0,52,0.00,,---,0.00,VWS V14.01,2013-06-22 22:25:00,
2013-06-22 18:30:00,79.0,61.0,30.10,South,183,5.0,10.0,54,0.00,,---,0.00,VWS V14.01,2013-06-22 22:30:00,
2013-06-22 18:35:00,78.8,60.8,30.10,SW,219,5.0,5.0,54,0.00,,---,0.00,VWS V14.01,2013-06-22 22:35:00,
2013-06-22 18:40:00,78.5,62.5,30.10,SW,228,2.0,7.0,58,0.00,,---,0.00,VWS V14.01,2013-06-22 22:40:00,
2013-06-22 18:45:00,78.0,62.5,30.10,SSW,203,4.0,7.0,59,0.00,,---,0.00,VWS V14.01,2013-06-22 22:45:00,
2013-06-22 18:50:00,77.6,63.1,30.10,SW,214,0.0,7.0,61,0.00,,---,0.00,VWS V14.01,2013-06-22 22:50:00,
2013-06-22 18:55:00,77.2,62.7,30.10,SW,232,3.0,7.0,61,0.00,,---,0.00,VWS V14.01,2013-06-22 22:55:00,
2013-06-22 19:00:00,76.9,62.9,30.10,SSW,199,2.0,7.0,62,0.00,,---,0.00,VWS V14.01,2013-06-22 23:00:00,
2013-06-22 19:05:00,76.7,63.2,30.10,SW,214,2.0,5.0,63,0.00,,---,0.00,VWS V14.01,2013-06-22 23:05:00,
2013-06-22 19:10:00,76.7,63.6,30.10,SSE,166,3.0,5.0,64,0.00,,---,0.00,VWS V14.01,2013-06-22 23:10:00,
2013-06-22 19:15:00,76.5,63.9,30.10,SSW,198,0.0,5.0,65,0.00,,---,0.00,VWS V14.01,2013-06-22 23:15:00,
2013-06-22 19:20:00,76.1,63.5,30.10,SSW,203,3.0,5.0,65,0.00,,---,0.00,VWS V14.01,2013-06-22 23:20:00,
2013-06-22 19:25:00,75.7,63.5,30.09,SSE,168,3.0,6.0,66,0.00,,---,0.00,VWS V14.01,2013-06-22 23:25:00,
2013-06-22 19:30:00,75.5,63.8,30.10,South,176,3.0,6.0,67,0.00,,---,0.00,VWS V14.01,2013-06-22 23:30:00,
2013-06-22 19:35:00,75.2,63.9,30.10,SSW,194,1.0,4.0,68,0.00,,---,0.00,VWS V14.01,2013-06-22 23:35:00,
2013-06-22 19:40:00,74.9,63.6,30.10,SW,228,4.0,6.0,68,0.00,,---,0.00,VWS V14.01,2013-06-22 23:40:00,
2013-06-22 19:45:00,74.6,63.3,30.10,SE,140,3.0,7.0,68,0.00,,---,0.00,VWS V14.01,2013-06-22 23:45:00,
2013-06-22 19:50:00,74.4,63.6,30.10,SSW,196,4.0,7.0,69,0.00,,---,0.00,VWS V14.01,2013-06-22 23:50:00,
2013-06-22 19:55:00,74.2,63.4,30.10,WSW,239,4.0,7.0,69,0.00,,---,0.00,VWS V14.01,2013-06-22 23:55:00,
2013-06-22 20:00:00,73.9,62.7,30.10,South,175,0.0,7.0,68,0.00,,---,0.00,VWS V14.01,2013-06-23 00:00:00,
2013-06-22 20:05:00,73.7,62.5,30.10,SSE,158,1.0,4.0,68,0.00,,---,0.00,VWS V14.01,2013-06-23 00:05:00,
2013-06-22 20:10:00,73.5,62.7,30.10,SSW,202,3.0,4.0,69,0.00,,---,0.00,VWS V14.01,2013-06-23 00:10:00,
2013-06-22 20:15:00,73.3,62.5,30.10,WSW,241,2.0,8.0,69,0.00,,---,0.00,VWS V14.01,2013-06-23 00:15:00,
2013-06-22 20:20:00,73.0,62.2,30.11,SSW,207,3.0,8.0,69,0.00,,---,0.00,VWS V14.01,2013-06-23 00:20:00,
2013-06-22 20:25:00,72.8,61.6,30.10,SW,229,4.0,8.0,68,0.00,,---,0.00,VWS V14.01,2013-06-23 00:25:00,
2013-06-22 20:30:00,72.7,62.0,30.10,SW,220,2.0,12.0,69,0.00,,---,0.00,VWS V14.01,2013-06-23 00:30:00,
2013-06-22 20:35:00,72.5,61.3,30.10,South,190,2.0,7.0,68,0.00,,---,0.00,VWS V14.01,2013-06-23 00:35:00,
2013-06-22 20:40:00,72.2,61.1,30.11,SE,145,0.0,7.0,68,0.00,,---,0.00,VWS V14.01,2013-06-23 00:40:00,
2013-06-22 20:45:00,72.0,60.9,30.11,SSW,194,5.0,7.0,68,0.00,,---,0.00,VWS V14.01,2013-06-23 00:45:00,
2013-06-22 20:50:00,71.8,60.3,30.11,SSW,204,5.0,7.0,67,0.00,,---,0.00,VWS V14.01,2013-06-23 00:50:00,
2013-06-22 20:55:00,71.6,60.5,30.11,South,174,0.0,7.0,68,0.00,,---,0.00,VWS V14.01,2013-06-23 00:55:00,
2013-06-22 21:00:00,71.3,59.8,30.12,SSW,203,3.0,7.0,67,0.00,,---,0.00,VWS V14.01,2013-06-23 01:00:00,
2013-06-22 21:05:00,71.2,60.5,30.12,SSW,208,0.0,2.0,69,0.00,,---,0.00,VWS V14.01,2013-06-23 01:05:00,
2013-06-22 21:10:00,71.0,60.3,30.12,South,191,2.0,3.0,69,0.00,,---,0.00,VWS V14.01,2013-06-23 01:10:00,
2013-06-22 21:15:00,70.8,59.7,30.13,South,190,0.0,4.0,68,0.00,,---,0.00,VWS V14.01,2013-06-23 01:15:00,
2013-06-22 21:20:00,70.7,59.2,30.13,WSW,242,0.0,4.0,67,0.00,,---,0.00,VWS V14.01,2013-06-23 01:20:00,
2013-06-22 21:25:00,70.5,59.0,30.13,SSW,212,0.0,4.0,67,0.00,,---,0.00,VWS V14.01,2013-06-23 01:25:00,
2013-06-22 21:30:00,70.4,58.9,30.13,South,178,0.0,4.0,67,0.00,,---,0.00,VWS V14.01,2013-06-23 01:30:00,
2013-06-22 21:35:00,70.3,58.8,30.13,South,185,2.0,3.0,67,0.00,,---,0.00,VWS V14.01,2013-06-23 01:35:00,
2013-06-22 21:40:00,70.1,58.7,30.14,SSW,193,0.0,4.0,67,0.00,,---,0.00,VWS V14.01,2013-06-23 01:40:00,
2013-06-22 21:45:00,69.9,58.9,30.14,NNE,33,1.0,4.0,68,0.00,,---,0.00,VWS V14.01,2013-06-23 01:45:00,
2013-06-22 21:50:00,69.7,59.1,30.14,SSW,212,0.0,4.0,69,0.00,,---,0.00,VWS V14.01,2013-06-23 01:50:00,
2013-06-22 21:55:00,69.5,58.9,30.14,SSW,196,1.0,5.0,69,0.00,,---,0.00,VWS V14.01,2013-06-23 01:55:00,
2013-06-22 22:00:00,69.3,59.1,30.14,SSW,197,0.0,5.0,70,0.00,,---,0.00,VWS V14.01,2013-06-23 02:00:00,
2013-06-22 22:05:00,69.1,58.9,30.14,SSW,197,0.0,1.0,70,0.00,,---,0.00,VWS V14.01,2013-06-23 02:05:00,
2013-06-22 22:10:00,68.9,59.1,30.15,South,183,1.0,2.0,71,0.00,,---,0.00,VWS V14.01,2013-06-23 02:10:00,
2013-06-22 22:15:00,68.8,59.0,30.14,SSW,199,0.0,3.0,71,0.00,,---,0.00,VWS V14.01,2013-06-23 02:15:00,
2013-06-22 22:20:00,68.7,58.9,30.15,SSW,203,0.0,3.0,71,0.00,,---,0.00,VWS V14.01,2013-06-23 02:20:00,
2013-06-22 22:25:00,68.5,58.7,30.15,North,349,0.0,3.0,71,0.00,,---,0.00,VWS V14.01,2013-06-23 02:25:00,
2013-06-22 22:30:00,68.5,59.1,30.14,South,191,0.0,6.0,72,0.00,,---,0.00,VWS V14.01,2013-06-23 02:30:00,
2013-06-22 22:35:00,68.4,59.0,30.14,South,191,0.0,1.0,72,0.00,,---,0.00,VWS V14.01,2013-06-23 02:35:00,
2013-06-22 22:40:00,68.2,59.2,30.14,South,181,0.0,4.0,73,0.00,,---,0.00,VWS V14.01,2013-06-23 02:40:00,
2013-06-22 22:45:00,68.0,58.7,30.14,South,181,0.0,4.0,72,0.00,,---,0.00,VWS V14.01,2013-06-23 02:45:00,
2013-06-22 22:50:00,67.9,58.9,30.15,South,181,0.0,4.0,73,0.00,,---,0.00,VWS V14.01,2013-06-23 02:50:00,
2013-06-22 22:55:00,67.9,58.5,30.15,South,184,3.0,4.0,72,0.00,,---,0.00,VWS V14.01,2013-06-23 02:55:00,
2013-06-22 23:00:00,68.1,58.7,30.15,SSW,207,0.0,5.0,72,0.00,,---,0.00,VWS V14.01,2013-06-23 03:00:00,
2013-06-22 23:05:00,68.2,58.8,30.15,NW,314,0.0,5.0,72,0.00,,---,0.00,VWS V14.01,2013-06-23 03:05:00,
2013-06-22 23:10:00,68.2,58.5,30.15,South,189,1.0,5.0,71,0.00,,---,0.00,VWS V14.01,2013-06-23 03:10:00,
2013-06-22 23:15:00,68.3,58.5,30.15,West,259,0.0,5.0,71,0.00,,---,0.00,VWS V14.01,2013-06-23 03:15:00,
2013-06-22 23:20:00,68.3,58.9,30.15,South,180,0.0,5.0,72,0.00,,---,0.00,VWS V14.01,2013-06-23 03:20:00,
2013-06-22 23:25:00,68.2,58.5,30.15,SSW,193,0.0,5.0,71,0.00,,---,0.00,VWS V14.01,2013-06-23 03:25:00,
2013-06-22 23:30:00,68.1,58.7,30.15,SSW,203,0.0,5.0,72,0.00,,---,0.00,VWS V14.01,2013-06-23 03:30:00,
2013-06-22 23:35:00,68.0,59.0,30.15,SSW,195,0.0,3.0,73,0.00,,---,0.00,VWS V14.01,2013-06-23 03:35:00,
2013-06-22 23:40:00,67.9,58.9,30.15,SW,236,2.0,3.0,73,0.00,,---,0.00,VWS V14.01,2013-06-23 03:40:00,
2013-06-22 23:45:00,67.9,58.9,30.15,SSW,193,0.0,3.0,73,0.00,,---,0.00,VWS V14.01,2013-06-23 03:45:00,
2013-06-22 23:50:00,67.8,58.1,30.15,South,180,1.0,3.0,71,0.00,,---,0.00,VWS V14.01,2013-06-23 03:50:00,
2013-06-22 23:55:00,67.9,58.5,30.15,South,179,0.0,3.0,72,0.00,,---,0.00,VWS V14.01,2013-06-23 03:55:00,